Time;durP1;ratioP1;P1;durP2;ratioP2;P2;SDS_P1;SDS_P2;PMS_P1;PMS_P2;Temp;Humidity;BMP_temperature;BMP_pressure;BME280_temperature;BME280_humidity;BME280_pressure;Samples;Min_cycle;Max_cycle;Signal;HPM_P1;HPM_P2
2024/01/18 00:01:05;;;;;;;28.92;20.15;;;;;;;0.86;82.88;96723.06;5126116;28;20043;-68
2024/01/18 00:03:33;;;;;;;30.00;22.10;;;;;;;0.86;83.12;96720.47;5125828;28;20040;-69
2024/01/18 00:05:59;;;;;;;33.92;20.40;;;;;;;0.86;83.11;96709.19;5125817;28;20059;-68
2024/01/18 00:08:26;;;;;;;27.13;20.52;;;;;;;0.15;83.13;96591.72;5126149;28;20070;-69
2024/01/18 00:10:52;;;;;;;29.55;20.52;;;;;;;0.69;83.19;96668.47;5125790;28;20054;-68
2024/01/18 00:13:19;;;;;;;28.80;20.20;;;;;;;0.87;83.05;96708.25;5125944;28;20084;-69
2024/01/18 00:15:46;;;;;;;30.73;21.05;;;;;;;0.88;82.90;96726.44;5126263;28;20092;-68
2024/01/18 00:18:12;;;;;;;28.25;20.45;;;;;;;0.90;82.56;96736.78;5125975;28;20035;-69
2024/01/18 00:20:41;;;;;;;26.65;19.02;;;;;;;0.92;82.39;96732.31;5125990;28;20044;-69
2024/01/18 00:23:08;;;;;;;29.85;20.85;;;;;;;0.92;83.42;96721.88;5125668;28;20093;-69
2024/01/18 00:25:34;;;;;;;31.20;21.33;;;;;;;0.88;84.04;96710.78;5125666;28;20089;-68
2024/01/18 00:28:01;;;;;;;30.80;20.77;;;;;;;0.80;84.02;96678.25;5126531;28;20043;-69
2024/01/18 00:30:28;;;;;;;28.70;20.25;;;;;;;0.91;84.01;96688.91;5125904;28;20104;-69
2024/01/18 00:32:54;;;;;;;29.15;21.48;;;;;;;0.94;83.33;96688.72;5125829;28;20040;-69
2024/01/18 00:35:21;;;;;;;29.25;19.50;;;;;;;0.98;83.69;96700.66;5129391;28;20101;-69
2024/01/18 00:37:49;;;;;;;27.70;20.88;;;;;;;0.97;84.01;96709.41;5129669;28;20052;-69
2024/01/18 00:40:16;;;;;;;25.02;19.27;;;;;;;1.00;83.28;96717.06;5129642;28;20051;-69
2024/01/18 00:42:42;;;;;;;26.20;19.80;;;;;;;1.01;82.64;96720.50;5129586;28;20040;-69
2024/01/18 00:45:09;;;;;;;27.15;19.75;;;;;;;1.04;83.08;96720.31;5129232;28;20059;-69
2024/01/18 00:47:36;;;;;;;27.13;19.70;;;;;;;1.04;83.74;96721.16;5129497;28;20043;-68
2024/01/18 00:50:02;;;;;;;24.33;17.98;;;;;;;1.06;83.25;96716.69;5129415;28;20241;-69
2024/01/18 00:52:29;;;;;;;24.70;19.52;;;;;;;1.07;83.58;96722.75;5129626;28;20054;-69
2024/01/18 00:54:58;;;;;;;27.38;20.13;;;;;;;1.03;83.42;96737.75;5129360;28;20066;-69
2024/01/18 00:57:24;;;;;;;25.08;19.73;;;;;;;0.87;83.78;96708.25;5129376;28;20044;-69
2024/01/18 00:59:52;;;;;;;28.73;20.73;;;;;;;1.08;83.85;96738.31;5129525;28;20051;-69
2024/01/18 01:02:20;;;;;;;26.88;19.58;;;;;;;0.89;83.82;96695.97;5127925;28;20035;-68
2024/01/18 01:04:46;;;;;;;26.70;20.63;;;;;;;1.11;83.60;96739.91;5129096;28;20043;-69
2024/01/18 01:07:13;;;;;;;30.35;22.15;;;;;;;1.12;83.72;96724.16;5128584;28;20319;-68
2024/01/18 01:09:40;;;;;;;27.25;19.58;;;;;;;1.12;84.08;96725.91;5129041;28;20039;-69
2024/01/18 01:12:08;;;;;;;26.60;19.08;;;;;;;1.13;84.24;96709.34;5128570;28;20044;-69
2024/01/18 01:14:35;;;;;;;27.02;20.83;;;;;;;1.13;84.33;96711.94;5128812;28;20111;-69
2024/01/18 01:17:02;;;;;;;29.98;21.15;;;;;;;1.13;84.26;96730.22;5129178;28;20093;-68
2024/01/18 01:19:28;;;;;;;26.67;19.48;;;;;;;1.13;84.15;96728.44;5129145;28;20050;-69
2024/01/18 01:21:55;;;;;;;28.17;19.65;;;;;;;1.14;85.13;96713.63;5129082;28;20204;-69
2024/01/18 01:24:21;;;;;;;26.70;18.95;;;;;;;1.13;85.00;96714.56;5128816;28;20039;-68
2024/01/18 01:26:48;;;;;;;31.30;21.95;;;;;;;0.60;84.85;96620.31;5128691;28;20069;-69
2024/01/18 01:29:16;;;;;;;30.60;20.27;;;;;;;1.17;84.95;96711.69;5128679;28;20038;-69
2024/01/18 01:31:43;;;;;;;28.40;20.27;;;;;;;1.19;85.26;96695.94;5128588;28;20043;-69
2024/01/18 01:34:10;;;;;;;28.13;19.95;;;;;;;1.21;85.18;96683.63;5128477;28;20061;-69
2024/01/18 01:36:37;;;;;;;27.90;20.80;;;;;;;1.22;84.75;96700.97;5128206;28;20051;-68
2024/01/18 01:39:04;;;;;;;30.05;19.92;;;;;;;1.24;84.51;96720.81;5128180;28;20043;-68
2024/01/18 01:41:32;;;;;;;25.23;18.67;;;;;;;1.25;84.09;96722.50;5128429;28;20114;-68
2024/01/18 01:44:00;;;;;;;26.85;20.67;;;;;;;1.11;83.81;96705.97;5128203;28;20035;-70
2024/01/18 01:46:29;;;;;;;29.92;21.90;;;;;;;1.29;84.64;96724.91;5127129;28;20063;-69
2024/01/18 01:49:00;;;;;;;25.27;19.17;;;;;;;1.28;84.52;96737.13;5128010;28;20092;-69
2024/01/18 01:51:28;;;;;;;28.42;19.92;;;;;;;1.29;84.27;96737.97;5128220;28;20226;-69
2024/01/18 01:53:54;;;;;;;30.00;20.92;;;;;;;1.30;85.07;96730.06;5128111;28;20074;-69
2024/01/18 01:56:22;;;;;;;24.77;18.10;;;;;;;1.30;84.50;96735.25;5127853;28;20055;-69
2024/01/18 01:58:50;;;;;;;27.20;19.92;;;;;;;1.33;84.07;96729.88;5128122;28;20113;-68
2024/01/18 02:01:17;;;;;;;30.67;21.55;;;;;;;1.29;85.97;96723.16;5128045;28;20100;-69
2024/01/18 02:03:45;;;;;;;29.98;21.30;;;;;;;1.32;85.00;96729.97;5127766;28;20288;-69
2024/01/18 02:06:13;;;;;;;32.35;21.67;;;;;;;1.31;85.90;96729.13;5127634;28;20051;-68
2024/01/18 02:08:40;;;;;;;29.35;20.92;;;;;;;1.31;85.65;96726.50;5128202;28;20039;-68
2024/01/18 02:11:07;;;;;;;32.10;21.02;;;;;;;1.37;85.42;96722.69;5127947;28;20066;-68
2024/01/18 02:13:35;;;;;;;30.05;21.95;;;;;;;1.37;85.92;96723.53;5127542;28;20047;-68
2024/01/18 02:16:02;;;;;;;32.85;20.15;;;;;;;1.38;84.92;96719.16;5127466;28;20215;-69
2024/01/18 02:18:29;;;;;;;29.92;21.27;;;;;;;1.39;85.56;96726.06;5127459;28;20215;-69
2024/01/18 02:20:57;;;;;;;34.75;22.08;;;;;;;1.40;85.62;96722.50;5127650;28;20051;-68
2024/01/18 02:23:25;;;;;;;29.67;21.55;;;;;;;1.41;85.07;96714.59;5127902;28;20291;-69
2024/01/18 02:25:53;;;;;;;31.40;23.35;;;;;;;1.41;85.58;96714.59;5127278;28;20043;-68
2024/01/18 02:28:20;;;;;;;30.23;21.83;;;;;;;1.40;85.83;96707.69;5127534;28;20051;-68
2024/01/18 02:30:47;;;;;;;32.13;21.27;;;;;;;1.42;85.64;96710.22;5127457;28;20096;-68
2024/01/18 02:33:13;;;;;;;35.15;23.05;;;;;;;1.42;85.81;96713.66;5127323;28;20043;-69
2024/01/18 02:35:40;;;;;;;30.85;21.30;;;;;;;1.43;85.41;96724.94;5127340;28;20173;-69
2024/01/18 02:38:07;;;;;;;34.30;22.13;;;;;;;1.43;85.20;96725.78;5127341;28;20044;-68
2024/01/18 02:40:33;;;;;;;31.05;21.77;;;;;;;1.44;84.98;96732.66;5127255;28;20066;-68
2024/01/18 02:43:01;;;;;;;39.50;25.77;;;;;;;1.47;85.43;96729.88;5126942;28;20047;-69
2024/01/18 02:45:28;;;;;;;34.80;23.08;;;;;;;1.46;85.66;96733.41;5127488;28;20039;-68
2024/01/18 02:47:55;;;;;;;29.98;21.23;;;;;;;1.46;85.34;96729.97;5127089;28;20044;-69
2024/01/18 02:50:22;;;;;;;36.42;24.63;;;;;;;1.43;85.88;96712.72;5127329;28;20047;-69
2024/01/18 02:52:48;;;;;;;34.30;24.20;;;;;;;1.44;85.52;96710.94;5126979;28;20292;-69
2024/01/18 02:55:17;;;;;;;39.42;24.67;;;;;;;1.47;85.32;96716.00;5126684;28;20043;-68
2024/01/18 02:57:44;;;;;;;37.65;24.80;;;;;;;1.45;85.33;96726.53;5127118;28;20097;-69
2024/01/18 03:00:13;;;;;;;39.13;23.65;;;;;;;1.45;85.87;96715.25;5126871;28;20054;-69
2024/01/18 03:02:40;;;;;;;38.38;23.77;;;;;;;1.44;86.25;96718.78;5126869;28;20043;-68
2024/01/18 03:05:08;;;;;;;37.28;23.45;;;;;;;1.45;85.61;96728.28;5126663;28;20077;-69
2024/01/18 03:07:35;;;;;;;38.70;24.75;;;;;;;1.45;86.01;96723.06;5127106;28;20114;-68
2024/01/18 03:10:01;;;;;;;37.97;22.38;;;;;;;1.44;86.32;96732.66;5126371;28;20124;-68
2024/01/18 03:12:28;;;;;;;40.40;24.70;;;;;;;1.46;86.21;96740.41;5126979;28;20047;-68
2024/01/18 03:14:55;;;;;;;41.00;25.08;;;;;;;1.35;86.68;96743.66;5127114;28;20226;-69
2024/01/18 03:17:23;;;;;;;41.53;25.85;;;;;;;1.44;85.93;96761.38;5126620;28;20043;-68
2024/01/18 03:19:49;;;;;;;38.33;23.42;;;;;;;1.43;85.70;96758.88;5125460;28;20047;-68
2024/01/18 03:22:16;;;;;;;37.75;23.10;;;;;;;1.44;85.26;96760.53;5126488;28;20039;-68
2024/01/18 03:24:42;;;;;;;41.08;24.15;;;;;;;1.45;85.79;96759.59;5126769;28;20040;-68
2024/01/18 03:27:09;;;;;;;40.90;24.23;;;;;;;1.38;86.87;96753.91;5126760;28;20047;-69
2024/01/18 03:29:37;;;;;;;34.28;22.55;;;;;;;1.33;86.06;96747.28;5126728;28;20067;-69
2024/01/18 03:32:04;;;;;;;34.80;23.63;;;;;;;1.25;86.25;96748.59;5126701;28;20050;-69
2024/01/18 03:34:32;;;;;;;33.05;21.40;;;;;;;1.22;86.09;96758.38;5126603;28;20043;-69
2024/01/18 03:36:59;;;;;;;34.50;23.65;;;;;;;1.25;85.61;96755.56;5126609;28;20306;-68
2024/01/18 03:39:26;;;;;;;33.95;23.63;;;;;;;1.27;85.08;96751.09;5126079;28;20050;-69
2024/01/18 03:41:52;;;;;;;34.97;22.80;;;;;;;1.28;84.63;96762.38;5126326;28;20040;-69
2024/01/18 03:44:19;;;;;;;35.78;22.77;;;;;;;1.29;84.24;96758.84;5126572;28;20044;-69
2024/01/18 03:46:46;;;;;;;36.63;24.10;;;;;;;1.28;84.15;96760.63;5126223;28;20054;-69
2024/01/18 03:49:12;;;;;;;33.30;22.08;;;;;;;1.26;83.63;96757.25;5126283;28;20078;-68
2024/01/18 03:51:40;;;;;;;38.35;24.67;;;;;;;1.04;83.46;96736.81;5125991;28;20084;-69
2024/01/18 03:54:07;;;;;;;33.20;21.95;;;;;;;1.24;83.13;96765.16;5126158;28;20044;-69
2024/01/18 03:56:34;;;;;;;32.85;21.58;;;;;;;1.25;83.05;96766.00;5126598;28;20052;-69
2024/01/18 03:59:01;;;;;;;36.97;24.23;;;;;;;1.06;82.61;96727.13;5126681;28;20039;-69
2024/01/18 04:01:31;;;;;;;38.88;23.10;;;;;;;1.21;82.38;96767.13;5126646;28;20066;-68
2024/01/18 04:03:58;;;;;;;33.17;20.85;;;;;;;1.18;82.55;96762.09;5126383;28;20284;-69
2024/01/18 04:06:24;;;;;;;30.40;20.77;;;;;;;1.21;82.39;96769.72;5125726;28;20112;-68
2024/01/18 04:08:52;;;;;;;30.75;21.50;;;;;;;1.19;82.33;96766.38;5127550;28;20276;-68
2024/01/18 04:11:19;;;;;;;33.83;21.65;;;;;;;1.17;82.37;96765.63;5130211;28;20065;-69
2024/01/18 04:13:47;;;;;;;34.92;21.50;;;;;;;1.15;82.30;96765.72;5129723;28;20035;-69
2024/01/18 04:16:14;;;;;;;32.60;21.92;;;;;;;1.13;82.32;96769.34;5130051;28;20046;-68
2024/01/18 04:18:40;;;;;;;31.98;20.73;;;;;;;1.13;82.50;96769.34;5130100;28;20092;-69
2024/01/18 04:21:07;;;;;;;29.60;20.25;;;;;;;1.10;82.33;96863.44;5129988;28;20040;-68
2024/01/18 04:23:34;;;;;;;31.58;21.63;;;;;;;1.11;82.13;96763.38;5130137;28;20061;-68
2024/01/18 04:26:02;;;;;;;33.38;21.58;;;;;;;1.11;81.79;96753.78;5129026;28;20050;-68
2024/01/18 04:28:29;;;;;;;30.88;20.30;;;;;;;1.11;81.67;96760.75;5130172;28;20051;-69
2024/01/18 04:30:56;;;;;;;29.40;20.80;;;;;;;1.08;81.97;96766.16;5129421;28;20357;-68
2024/01/18 04:33:22;;;;;;;31.50;20.80;;;;;;;1.03;82.23;96768.19;5129351;28;20051;-69
2024/01/18 04:35:49;;;;;;;29.02;21.52;;;;;;;0.84;82.00;96740.56;5129699;28;20043;-69
2024/01/18 04:38:16;;;;;;;33.90;20.13;;;;;;;1.06;81.97;96778.44;5129625;28;20066;-69
2024/01/18 04:40:43;;;;;;;30.45;22.30;;;;;;;1.04;82.00;96786.38;5129813;28;20242;-69
2024/01/18 04:43:11;;;;;;;30.58;20.30;;;;;;;0.97;82.07;96785.03;5129229;28;20043;-68
2024/01/18 04:45:38;;;;;;;33.20;20.23;;;;;;;0.97;82.43;96782.44;5129442;28;20100;-68
2024/01/18 04:48:05;;;;;;;33.67;20.63;;;;;;;1.01;82.16;96783.94;5129436;28;20044;-68
2024/01/18 04:50:32;;;;;;;31.05;21.63;;;;;;;0.92;82.29;96787.06;5129518;28;20204;-69
2024/01/18 04:53:00;;;;;;;31.23;21.30;;;;;;;0.97;82.22;96790.25;5129383;28;20296;-68
2024/01/18 04:55:27;;;;;;;37.10;21.50;;;;;;;0.79;82.07;96760.00;5129464;28;20039;-68
2024/01/18 04:57:54;;;;;;;33.05;22.42;;;;;;;1.01;81.84;96791.75;5129000;28;20288;-69
2024/01/18 05:00:22;;;;;;;31.88;21.33;;;;;;;0.98;82.00;96796.31;5129234;27;20055;-69
2024/01/18 05:02:49;;;;;;;33.97;21.42;;;;;;;1.00;82.14;96797.06;5129461;28;20047;-68
2024/01/18 05:05:15;;;;;;;31.48;21.50;;;;;;;1.01;82.18;96793.53;5129137;28;20097;-69
2024/01/18 05:07:42;;;;;;;29.50;20.65;;;;;;;0.99;82.27;96795.38;5129091;28;20043;-68
2024/01/18 05:10:09;;;;;;;30.30;21.00;;;;;;;0.95;82.07;96794.72;5129055;28;20058;-68
2024/01/18 05:12:36;;;;;;;29.15;21.35;;;;;;;0.99;81.93;96798.00;5129018;28;20224;-68
2024/01/18 05:15:03;;;;;;;31.30;21.08;;;;;;;1.00;82.14;96804.88;5128896;28;20101;-68
2024/01/18 05:17:35;;;;;;;32.58;21.48;;;;;;;0.96;82.09;96806.00;5128887;28;20051;-68
2024/01/18 05:20:02;;;;;;;34.38;22.38;;;;;;;0.97;82.10;96803.28;5127977;28;20069;-68
2024/01/18 05:22:29;;;;;;;29.48;18.50;;;;;;;0.98;82.04;96804.97;5128761;28;20062;-68
2024/01/18 05:24:56;;;;;;;31.95;21.02;;;;;;;0.95;82.31;96812.97;5129078;28;20070;-68
2024/01/18 05:27:24;;;;;;;32.83;21.30;;;;;;;0.94;82.47;96812.13;5128453;28;20043;-68
2024/01/18 05:29:51;;;;;;;32.38;21.08;;;;;;;0.96;82.21;96817.25;5128684;28;20051;-69
2024/01/18 05:32:20;;;;;;;28.33;20.30;;;;;;;0.92;82.45;96820.97;5128712;28;20084;-68
2024/01/18 05:34:48;;;;;;;30.17;21.02;;;;;;;0.97;82.51;96815.50;5128489;28;20036;-68
2024/01/18 05:37:15;;;;;;;31.20;21.23;;;;;;;1.00;82.10;96810.09;5128565;28;20062;-69
2024/01/18 05:39:41;;;;;;;28.67;19.65;;;;;;;0.93;82.49;96801.78;5128543;28;20050;-68
2024/01/18 05:42:08;;;;;;;31.17;19.88;;;;;;;0.93;82.70;96804.41;5128452;28;20054;-69
2024/01/18 05:44:35;;;;;;;28.13;19.20;;;;;;;0.97;82.60;96802.44;5128072;28;20039;-69
2024/01/18 05:47:02;;;;;;;27.45;19.48;;;;;;;0.95;82.73;96799.94;5128370;28;20044;-68
2024/01/18 05:49:29;;;;;;;30.55;21.05;;;;;;;0.92;83.35;96795.72;5128319;28;20036;-69
2024/01/18 05:51:57;;;;;;;30.90;20.33;;;;;;;0.96;83.36;96788.56;5127883;28;20096;-69
2024/01/18 05:54:23;;;;;;;29.48;20.45;;;;;;;0.94;84.15;96801.69;5128339;28;20036;-68
2024/01/18 05:56:50;;;;;;;32.50;20.65;;;;;;;0.92;83.55;96795.72;5128153;28;20040;-68
2024/01/18 05:59:17;;;;;;;30.45;21.10;;;;;;;0.97;83.84;96795.47;5128067;28;20051;-68
2024/01/18 06:01:44;;;;;;;28.85;19.92;;;;;;;0.96;83.76;96796.41;5128393;28;20031;-68
2024/01/18 06:04:10;;;;;;;33.38;22.08;;;;;;;0.93;84.57;96804.41;5127984;28;20280;-68
2024/01/18 06:06:37;;;;;;;28.60;18.33;;;;;;;0.75;84.76;96771.53;5127521;28;20059;-68
2024/01/18 06:09:05;;;;;;;28.70;20.05;;;;;;;0.92;85.12;96793.13;5127603;28;20040;-68
2024/01/18 06:11:32;;;;;;;27.67;19.17;;;;;;;0.98;84.67;96796.31;5126731;28;20100;-68
2024/01/18 06:13:58;;;;;;;31.98;21.13;;;;;;;0.94;85.49;96806.91;5127729;28;20048;-68
2024/01/18 06:16:25;;;;;;;29.00;19.42;;;;;;;0.98;85.40;96804.97;5128017;28;20252;-68
2024/01/18 06:18:52;;;;;;;27.17;19.75;;;;;;;1.01;85.25;96799.59;5127701;28;20043;-68
2024/01/18 06:21:19;;;;;;;30.23;19.40;;;;;;;0.23;85.46;96730.19;5127933;28;20047;-68
2024/01/18 06:23:46;;;;;;;33.30;21.05;;;;;;;0.98;85.74;96817.19;5127570;28;20035;-68
2024/01/18 06:26:14;;;;;;;28.80;19.23;;;;;;;0.97;86.27;96818.94;5127586;28;20140;-68
2024/01/18 06:28:40;;;;;;;32.33;21.67;;;;;;;1.03;86.30;96825.56;5127517;28;20052;-69
2024/01/18 06:31:08;;;;;;;31.02;21.40;;;;;;;0.85;86.54;96812.66;5126620;28;20043;-69
2024/01/18 06:33:35;;;;;;;31.00;22.80;;;;;;;1.02;86.98;96837.78;5127369;28;20035;-69
2024/01/18 06:36:02;;;;;;;30.15;20.15;;;;;;;0.68;86.91;96784.09;5127272;28;20054;-68
2024/01/18 06:38:29;;;;;;;32.50;21.33;;;;;;;1.07;87.12;96837.50;5127214;28;20077;-68
2024/01/18 06:40:58;;;;;;;31.50;22.70;;;;;;;1.07;87.17;96837.50;5126886;28;20043;-69
2024/01/18 06:43:26;;;;;;;29.88;19.48;;;;;;;1.07;87.16;96838.34;5127006;28;20043;-69
2024/01/18 06:45:54;;;;;;;28.13;18.85;;;;;;;1.03;87.37;96844.69;5126917;28;20314;-68
2024/01/18 06:48:21;;;;;;;30.38;20.67;;;;;;;1.08;87.49;96831.38;5126827;28;20108;-69
2024/01/18 06:50:47;;;;;;;29.10;19.92;;;;;;;0.96;87.97;96817.25;5127310;28;20092;-68
2024/01/18 06:53:14;;;;;;;30.67;20.15;;;;;;;1.09;87.91;96835.66;5127001;28;20043;-68
2024/01/18 06:55:41;;;;;;;26.80;19.25;;;;;;;1.09;88.40;96833.06;5126972;28;20100;-69
2024/01/18 06:58:07;;;;;;;28.55;19.38;;;;;;;1.14;87.91;96836.25;5126960;28;20126;-69
2024/01/18 07:00:35;;;;;;;31.42;21.45;;;;;;;1.19;87.63;96835.03;5126582;28;20043;-68
2024/01/18 07:03:02;;;;;;;34.40;19.80;;;;;;;1.18;87.88;96842.97;5126843;27;20096;-69
2024/01/18 07:05:29;;;;;;;28.92;20.08;;;;;;;1.24;87.26;96837.38;5126279;28;20076;-68
2024/01/18 07:07:56;;;;;;;30.83;19.33;;;;;;;1.05;86.85;96803.69;5126752;28;20043;-69
2024/01/18 07:10:22;;;;;;;33.67;21.15;;;;;;;1.30;86.97;96849.25;5126983;28;20043;-69
2024/01/18 07:12:50;;;;;;;28.20;20.30;;;;;;;1.31;87.38;96846.53;5126593;28;20119;-68
2024/01/18 07:15:17;;;;;;;31.42;21.13;;;;;;;1.31;87.33;96846.53;5126304;28;20039;-69
2024/01/18 07:17:45;;;;;;;30.50;20.92;;;;;;;1.33;87.11;96855.13;5126555;28;20051;-68
2024/01/18 07:20:12;;;;;;;29.90;19.58;;;;;;;1.34;86.90;96848.97;5126461;28;20044;-69
2024/01/18 07:22:39;;;;;;;33.42;20.95;;;;;;;1.34;86.79;96856.81;5126289;28;20093;-69
2024/01/18 07:25:06;;;;;;;26.55;18.42;;;;;;;1.15;87.16;96820.50;5126431;28;20050;-69
2024/01/18 07:27:33;;;;;;;27.75;19.60;;;;;;;1.33;87.78;96860.34;5126407;28;20196;-69
2024/01/18 07:29:59;;;;;;;30.05;19.05;;;;;;;1.15;87.61;96822.25;5126097;28;20189;-68
2024/01/18 07:32:26;;;;;;;24.65;17.65;;;;;;;1.35;87.49;96850.66;5126771;28;20291;-68
2024/01/18 07:34:54;;;;;;;25.80;18.63;;;;;;;1.36;88.24;96852.34;5126262;28;20051;-68
2024/01/18 07:37:21;;;;;;;26.15;18.58;;;;;;;1.38;87.67;96849.63;5126397;28;20106;-68
2024/01/18 07:39:48;;;;;;;27.98;20.02;;;;;;;1.05;87.45;96790.66;5126575;28;20116;-68
2024/01/18 07:42:14;;;;;;;28.42;19.35;;;;;;;1.41;87.62;96839.84;5126024;28;20085;-69
2024/01/18 07:44:42;;;;;;;26.63;18.85;;;;;;;1.36;88.21;96844.50;5125518;28;20040;-69
2024/01/18 07:47:10;;;;;;;27.17;19.42;;;;;;;1.39;87.83;96846.94;5126510;28;20071;-69
2024/01/18 07:49:37;;;;;;;27.67;18.33;;;;;;;1.41;88.58;96845.09;5126171;28;20044;-68
2024/01/18 07:52:06;;;;;;;25.17;18.77;;;;;;;1.44;87.98;96842.28;5126127;28;20292;-68
2024/01/18 07:54:33;;;;;;;28.23;18.88;;;;;;;1.44;87.84;96839.69;5126056;28;20165;-68
2024/01/18 07:56:59;;;;;;;29.63;19.33;;;;;;;1.41;88.18;96845.09;5125802;28;20043;-68
2024/01/18 07:59:26;;;;;;;26.48;19.17;;;;;;;1.21;89.47;96809.72;5126006;28;20043;-68
2024/01/18 08:01:53;;;;;;;30.67;20.33;;;;;;;1.42;88.69;96840.69;5125798;28;20345;-68
2024/01/18 08:04:19;;;;;;;30.27;20.45;;;;;;;1.45;88.86;96836.13;5125710;28;20101;-68
2024/01/18 08:06:46;;;;;;;27.67;18.50;;;;;;;1.46;88.75;96837.81;5125518;28;20116;-69
2024/01/18 08:09:14;;;;;;;27.00;19.30;;;;;;;1.48;88.66;96835.13;5125927;28;20056;-69
2024/01/18 08:11:40;;;;;;;27.17;19.73;;;;;;;1.46;88.90;96826.53;5125685;28;20043;-69
2024/01/18 08:14:07;;;;;;;32.30;21.08;;;;;;;1.31;88.65;96828.28;5124783;28;20061;-69
2024/01/18 08:16:34;;;;;;;31.65;20.63;;;;;;;1.54;88.78;96826.94;5125618;28;20040;-68
2024/01/18 08:19:01;;;;;;;29.58;21.02;;;;;;;1.49;88.76;96837.63;5125623;28;20199;-69
2024/01/18 08:21:27;;;;;;;30.48;21.35;;;;;;;1.52;88.62;96831.41;5125971;28;20181;-69
2024/01/18 08:23:54;;;;;;;28.23;19.75;;;;;;;1.20;88.32;96765.44;5125852;28;20051;-69
2024/01/18 08:26:22;;;;;;;29.15;18.73;;;;;;;1.60;88.27;96826.59;5125899;28;20093;-68
2024/01/18 08:28:49;;;;;;;29.65;18.45;;;;;;;1.60;88.39;96829.22;5126295;28;20161;-69
2024/01/18 08:31:15;;;;;;;30.08;20.35;;;;;;;1.40;88.77;96800.81;5126076;28;20098;-69
2024/01/18 08:33:42;;;;;;;26.60;19.92;;;;;;;1.56;88.71;96825.06;5125483;28;20100;-69
2024/01/18 08:36:10;;;;;;;31.65;19.17;;;;;;;1.58;88.71;96817.97;5125426;28;20039;-69
2024/01/18 08:38:36;;;;;;;27.42;19.25;;;;;;;1.57;89.08;96822.38;5125943;28;20191;-69
2024/01/18 08:41:03;;;;;;;28.65;19.90;;;;;;;1.57;89.25;96816.31;5125980;28;20059;-69
2024/01/18 08:43:31;;;;;;;29.60;21.25;;;;;;;1.61;89.59;96811.78;5125443;28;20043;-68
2024/01/18 08:45:59;;;;;;;28.40;21.23;;;;;;;1.64;89.90;96815.03;5125622;28;20048;-68
2024/01/18 08:48:26;;;;;;;27.63;19.67;;;;;;;1.45;89.25;96785.72;5125592;28;20100;-69
2024/01/18 08:50:52;;;;;;;28.55;20.10;;;;;;;1.69;89.43;96812.16;5125346;28;20284;-68
2024/01/18 08:53:19;;;;;;;31.92;20.75;;;;;;;1.49;90.71;96785.44;5125251;28;20261;-69
2024/01/18 08:55:46;;;;;;;30.70;21.08;;;;;;;1.68;90.41;96816.53;5127984;28;20039;-68
2024/01/18 08:58:12;;;;;;;30.92;21.17;;;;;;;1.69;90.33;96812.16;5128967;28;20089;-68
2024/01/18 09:00:40;;;;;;;29.05;20.88;;;;;;;1.70;90.40;96799.00;5129113;28;20189;-68
2024/01/18 09:03:07;;;;;;;27.30;20.42;;;;;;;1.72;89.86;96804.13;5128737;28;20238;-69
2024/01/18 09:05:33;;;;;;;28.30;21.52;;;;;;;1.74;91.10;96802.28;5128678;28;20047;-69
2024/01/18 09:08:00;;;;;;;27.23;20.33;;;;;;;1.71;90.93;96800.69;5128648;28;20376;-69
2024/01/18 09:10:27;;;;;;;29.98;20.85;;;;;;;1.77;90.37;96807.31;5129030;28;20035;-69
2024/01/18 09:12:55;;;;;;;31.42;21.60;;;;;;;1.85;89.63;96807.69;5129111;28;20043;-69
2024/01/18 09:15:22;;;;;;;27.88;20.27;;;;;;;1.83;90.06;96815.63;5128919;28;20111;-69
2024/01/18 09:17:50;;;;;;;35.00;21.42;;;;;;;1.87;90.20;96813.66;5128769;28;20263;-69
2024/01/18 09:20:16;;;;;;;31.30;21.60;;;;;;;1.91;89.74;96820.38;5128742;28;20043;-69
2024/01/18 09:22:43;;;;;;;28.90;20.73;;;;;;;1.98;89.55;96821.69;5128705;28;20079;-68
2024/01/18 09:25:10;;;;;;;28.00;21.42;;;;;;;2.00;89.05;96821.59;5128777;28;20039;-69
2024/01/18 09:27:36;;;;;;;29.33;20.08;;;;;;;2.07;88.80;96825.50;5128409;28;20089;-69
2024/01/18 09:30:03;;;;;;;32.72;22.20;;;;;;;2.09;89.45;96831.47;5128578;28;20052;-69
2024/01/18 09:32:30;;;;;;;30.20;21.52;;;;;;;2.11;90.63;96827.84;5128583;28;20055;-69
2024/01/18 09:34:58;;;;;;;31.38;22.40;;;;;;;1.96;90.78;96788.75;5128371;28;20054;-69
2024/01/18 09:37:25;;;;;;;31.17;22.85;;;;;;;2.17;91.02;96826.63;5128430;28;20173;-69
2024/01/18 09:39:51;;;;;;;29.80;21.35;;;;;;;2.20;91.06;96822.03;5128474;28;20043;-69
2024/01/18 09:42:21;;;;;;;30.42;21.38;;;;;;;2.19;90.46;96828.22;5128348;28;20054;-69
2024/01/18 09:44:49;;;;;;;28.75;20.83;;;;;;;2.23;90.38;96821.00;5128681;28;20074;-68
2024/01/18 09:47:16;;;;;;;32.20;21.27;;;;;;;2.24;90.61;96830.53;5128324;28;20222;-69
2024/01/18 09:49:44;;;;;;;30.02;21.55;;;;;;;2.28;91.46;96820.72;5128231;28;20107;-69
2024/01/18 09:52:12;;;;;;;31.15;22.55;;;;;;;2.09;91.56;96793.13;5128077;28;20088;-68
2024/01/18 09:54:39;;;;;;;27.13;19.83;;;;;;;2.33;92.30;96810.84;5128307;28;20226;-69
2024/01/18 09:57:08;;;;;;;27.35;18.67;;;;;;;2.31;91.40;96816.16;5127375;28;20039;-69
2024/01/18 09:59:38;;;;;;;27.42;19.83;;;;;;;2.32;92.00;96811.75;5128200;28;20108;-69
2024/01/18 10:02:05;;;;;;;26.75;20.48;;;;;;;2.34;91.38;96812.50;5128187;28;20184;-69
2024/01/18 10:04:32;;;;;;;27.27;19.00;;;;;;;2.34;90.76;96807.28;5127839;28;20035;-69
2024/01/18 10:06:59;;;;;;;30.88;22.45;;;;;;;2.41;90.72;96804.19;5126593;28;20051;-69
2024/01/18 10:09:28;;;;;;;26.83;20.80;;;;;;;2.46;90.03;96811.75;5127856;28;20069;-68
2024/01/18 10:11:55;;;;;;;30.85;20.30;;;;;;;2.47;90.68;96801.19;5127475;28;20353;-69
2024/01/18 10:14:41;;;;;;;29.63;21.60;;;;;;;2.52;90.07;96798.28;5127726;28;20051;-69
2024/01/18 10:17:08;;;;;;;29.10;21.23;;;;;;;2.53;89.99;96806.03;5126757;28;20036;-69
2024/01/18 10:19:35;;;;;;;29.73;21.45;;;;;;;2.52;89.30;96791.28;5127241;28;20043;-69
2024/01/18 10:22:02;;;;;;;32.00;22.30;;;;;;;2.53;89.92;96798.19;5126388;28;20075;-69
2024/01/18 10:24:30;;;;;;;30.05;21.73;;;;;;;2.61;89.61;96796.84;5127448;28;20110;-69
2024/01/18 10:27:03;;;;;;;28.75;19.92;;;;;;;2.12;89.73;96724.16;5127220;28;20062;-69
2024/01/18 10:29:35;;;;;;;33.05;22.10;;;;;;;2.70;89.82;96794.50;5127412;28;20039;-68
2024/01/18 10:32:02;;;;;;;30.65;21.40;;;;;;;2.71;90.34;96800.56;5127052;28;20039;-69
2024/01/18 10:34:28;;;;;;;32.65;22.80;;;;;;;2.82;90.39;96798.09;5127233;28;20039;-68
2024/01/18 10:36:55;;;;;;;26.83;22.65;;;;;;;2.82;89.41;96804.16;5127400;28;20096;-68
2024/01/18 10:39:22;;;;;;;31.17;23.55;;;;;;;2.82;89.96;96796.31;5127248;28;20106;-69
2024/01/18 10:41:50;;;;;;;35.58;25.00;;;;;;;2.84;90.00;96791.81;5126907;28;20085;-69
2024/01/18 10:44:17;;;;;;;30.48;22.45;;;;;;;2.91;90.36;96787.03;5127154;28;20093;-69
2024/01/18 10:46:44;;;;;;;31.23;25.02;;;;;;;2.97;90.79;96785.78;5126951;28;20043;-69
2024/01/18 10:49:11;;;;;;;32.22;23.85;;;;;;;3.05;90.87;96786.13;5127204;28;20039;-69
2024/01/18 10:51:40;;;;;;;32.50;25.02;;;;;;;3.01;91.26;96776.81;5126717;28;20047;-69
2024/01/18 10:54:08;;;;;;;38.13;26.35;;;;;;;3.28;91.14;96779.38;5127107;28;20056;-70
2024/01/18 10:56:36;;;;;;;30.55;22.52;;;;;;;3.29;90.92;96808.06;5126854;28;20080;-69
2024/01/18 10:59:06;;;;;;;35.00;23.83;;;;;;;3.12;90.82;96753.38;5127123;28;20063;-69
2024/01/18 11:01:34;;;;;;;31.02;21.23;;;;;;;3.43;91.19;96779.19;5126914;28;20074;-69
2024/01/18 11:04:02;;;;;;;33.15;22.83;;;;;;;3.42;91.28;96780.13;5126520;28;20046;-69
2024/01/18 11:06:30;;;;;;;30.80;22.35;;;;;;;3.48;91.15;96773.66;5126529;28;20051;-69
2024/01/18 11:08:57;;;;;;;31.30;23.35;;;;;;;2.80;91.71;96656.94;5126722;28;20043;-68
2024/01/18 11:11:25;;;;;;;31.55;23.80;;;;;;;3.52;91.96;96767.25;5126598;28;20039;-68
2024/01/18 11:13:52;;;;;;;37.08;26.15;;;;;;;3.59;91.96;96757.19;5126546;28;20043;-69
2024/01/18 11:16:20;;;;;;;38.83;26.63;;;;;;;3.62;92.21;96757.81;5126583;28;20089;-69
2024/01/18 11:18:50;;;;;;;36.15;25.27;;;;;;;3.68;91.50;96762.66;5126500;28;20043;-69
2024/01/18 11:21:17;;;;;;;37.03;25.33;;;;;;;3.62;91.12;96759.59;5126797;28;20099;-69
2024/01/18 11:23:44;;;;;;;35.38;25.77;;;;;;;3.89;91.04;96757.72;5126078;28;20287;-69